Marathon, Ohio
Current Conditions -  °F | °C
As of 8:54 AM on Friday 31 Oct 2014 (Local Time) from KILN Reporting Station
Haze Haze  
Wind Chill: 41°   Ceiling: 4800
Heat Index: 41°   Visibility: 6mi
Dew Point: 38°   Wind: 3mph
Humidity: 89%   Direction: 200°SSW
Pressure: 29.96"   Gusts: NA
Location:  39.14°N, 84.01°W
Report Text: KILN 311254Z AUTO 20003KT 6SM BR OVC048 05/03 A2996 RMK AO2 SLP162 T00500033
Loading
Personal Weather Stations






























Interactive Weather Map
Tropical Storm Tracking
New forecast layout! Learn more

10-Day Weather Forecast

Advertisements
Track Severe Weather on mobile